Main page
METAR-TAF:

METAR-TAF

Airports :

Multan International Airport

Multan, Pakistan

latitude: 30-12-12N, longitude: 71-25-09E, elevation: 122 m

Current weather observation

The report was made 38 minutes ago, at 06:00 UTC
Wind 4 kt from the South
Temperature 21°C
Humidity 43%
Pressure 1016 hPa
Visibility: 3000 m
Scattered clouds at a height of 12000 ft
haze

METAR: OPMT 080600Z 18004KT 3000 HZ SCT120 21/08 Q1016 TEMPO 2000

Time: 11:38 (06:38 UTC)

Forecast

The report was made 2 hours and 53 minutes ago, at 03:45 UTC
Forecast valid from 08 at 06 UTC to 08 at 24 UTC
Wind 10 kt from the North
Visibility: 4000 m
Scattered clouds at a height of 4000 ft
Scattered clouds at a height of 10000 ft
smoke

TAF: OPMT 080345Z 0806/0824 36010KT 4000 FU SCT040 SCT100 TX24/0810Z

Weather observations and forecasts of more than 4000 airports (METAR and TAF reports).

The available stations are represented by yellow and red dots on the map.

Hover mouse over dot to see the name of the station.

Then click to see weather observations and forecasts.

To change the map : click on the green buttons with a black cross to zoom in, on the green button with a dash to zoom out, or on the green arrows for adjacent maps.


METAR-TAF: